createdAt,value
2019-05-18T00:04:53.643Z,99.90
2019-05-18T00:09:58.580Z,99.90
2019-05-18T00:15:05.235Z,99.90
2019-05-18T00:20:11.485Z,99.90
2019-05-18T00:25:16.639Z,99.90
2019-05-18T00:30:22.528Z,99.90
2019-05-18T00:35:27.878Z,99.90
2019-05-18T00:40:32.879Z,99.90
2019-05-18T00:45:38.292Z,99.90
2019-05-18T00:50:43.264Z,99.90
2019-05-18T00:55:48.454Z,99.90
2019-05-18T01:00:54.108Z,99.90
2019-05-18T01:06:00.865Z,99.90
2019-05-18T01:11:06.572Z,99.90
2019-05-18T01:16:12.976Z,99.90
2019-05-18T01:21:19.637Z,99.90
2019-05-18T01:26:26.666Z,99.90
2019-05-18T01:31:34.660Z,99.90
2019-05-18T01:36:39.923Z,99.90
2019-05-18T01:41:45.794Z,99.90
2019-05-18T01:46:52.846Z,99.90
2019-05-18T01:51:59.977Z,99.90
2019-05-18T01:57:06.438Z,99.90
2019-05-18T02:02:13.094Z,99.90
2019-05-18T02:07:17.983Z,99.90
2019-05-18T02:12:23.306Z,99.90
2019-05-18T02:17:28.554Z,99.90
2019-05-18T02:22:33.628Z,99.90
2019-05-18T02:27:38.788Z,99.90
2019-05-18T02:32:44.152Z,99.90
2019-05-18T02:37:49.465Z,99.90
2019-05-18T02:42:54.732Z,99.90
2019-05-18T02:48:00.016Z,99.90
2019-05-18T02:53:04.927Z,99.90
2019-05-18T02:58:10.127Z,99.90
2019-05-18T03:03:15.416Z,99.90
2019-05-18T03:08:20.395Z,99.90
2019-05-18T03:13:25.586Z,99.90
2019-05-18T03:18:31.000Z,99.90
2019-05-18T03:23:36.168Z,99.90
2019-05-18T03:28:41.327Z,99.90
2019-05-18T03:33:46.659Z,99.90
2019-05-18T03:38:51.994Z,99.90
2019-05-18T03:43:57.230Z,99.90
2019-05-18T03:49:02.421Z,99.90
2019-05-18T03:54:07.363Z,99.90
2019-05-18T03:59:12.628Z,99.90
2019-05-18T04:04:21.485Z,99.90
2019-05-18T04:09:26.642Z,99.90
2019-05-18T04:14:31.861Z,99.90
2019-05-18T04:19:46.263Z,99.90
2019-05-18T04:24:45.147Z,99.90
2019-05-18T04:29:50.611Z,99.90
2019-05-18T04:34:56.099Z,99.90
2019-05-18T04:40:01.493Z,99.90
2019-05-18T04:45:09.354Z,99.90
2019-05-18T04:50:14.892Z,99.90
2019-05-18T04:55:20.344Z,99.90
2019-05-18T05:00:25.575Z,99.90
2019-05-18T05:05:30.555Z,99.90
2019-05-18T05:10:35.909Z,99.90
2019-05-18T05:15:41.286Z,99.90
2019-05-18T05:20:47.387Z,99.90
2019-05-18T05:25:52.709Z,99.90
2019-05-18T05:30:57.687Z,99.90
2019-05-18T05:36:02.940Z,99.90
2019-05-18T05:41:08.029Z,99.90
2019-05-18T05:46:13.173Z,99.90
2019-05-18T05:51:18.359Z,99.90
2019-05-18T05:56:23.362Z,99.90
2019-05-18T06:01:28.643Z,99.90
2019-05-18T06:06:33.935Z,99.90
2019-05-18T06:11:38.892Z,99.90
2019-05-18T06:16:43.828Z,99.90
2019-05-18T06:21:49.096Z,99.90
2019-05-18T06:26:53.980Z,99.90
2019-05-18T06:31:59.325Z,99.90
2019-05-18T06:37:04.263Z,99.90
2019-05-18T06:42:10.956Z,99.90
2019-05-18T06:47:16.307Z,99.90
2019-05-18T06:52:21.509Z,99.90
2019-05-18T06:57:27.884Z,99.90
2019-05-18T07:02:33.282Z,99.90
2019-05-18T07:07:38.366Z,99.90
2019-05-18T07:12:43.666Z,99.90
2019-05-18T07:17:48.617Z,99.90
2019-05-18T07:22:53.766Z,99.90
2019-05-18T07:27:58.753Z,99.90
2019-05-18T07:33:03.774Z,99.90
2019-05-18T07:38:09.042Z,99.90
2019-05-18T07:43:14.021Z,99.90
2019-05-18T07:48:19.186Z,99.90
2019-05-18T07:53:24.416Z,99.90
2019-05-18T07:58:29.388Z,99.90
2019-05-18T08:03:34.677Z,99.90
2019-05-18T08:08:39.845Z,99.90
2019-05-18T08:13:44.806Z,99.90
2019-05-18T08:18:49.919Z,99.90
2019-05-18T08:23:55.292Z,99.90
2019-05-18T08:29:00.204Z,99.90
2019-05-18T08:34:05.518Z,99.90
2019-05-18T08:39:10.919Z,99.90
2019-05-18T08:44:16.032Z,99.90
2019-05-18T08:49:21.348Z,99.90
2019-05-18T08:54:26.290Z,99.90
2019-05-18T08:59:31.286Z,99.90
2019-05-18T09:04:36.689Z,99.40
2019-05-18T09:09:41.917Z,99.10
2019-05-18T09:14:47.195Z,99.10
2019-05-18T09:19:52.486Z,99.10
2019-05-18T09:24:57.751Z,98.90
2019-05-18T09:30:03.100Z,98.40
2019-05-18T09:35:09.243Z,97.50
2019-05-18T09:40:14.350Z,97.30
2019-05-18T09:45:20.230Z,98.20
2019-05-18T09:50:25.392Z,96.50
2019-05-18T09:55:30.855Z,97.70
2019-05-18T10:00:38.966Z,98.00
2019-05-18T10:05:42.706Z,97.30
2019-05-18T10:10:47.615Z,97.30
2019-05-18T10:15:52.811Z,97.10
2019-05-18T10:20:57.846Z,97.90
2019-05-18T10:26:02.996Z,96.40
2019-05-18T10:31:08.510Z,97.10
2019-05-18T10:36:13.732Z,95.80
2019-05-18T10:41:19.031Z,95.00
2019-05-18T10:46:24.347Z,92.30
2019-05-18T10:51:29.300Z,91.50
2019-05-18T10:56:34.430Z,88.60
2019-05-18T11:01:39.812Z,90.20
2019-05-18T11:06:45.097Z,93.10
2019-05-18T11:11:50.054Z,92.00
2019-05-18T11:16:55.259Z,90.60
2019-05-18T11:22:00.458Z,91.60
2019-05-18T11:27:05.439Z,92.50
2019-05-18T11:32:10.662Z,93.00
2019-05-18T11:37:15.933Z,92.80
2019-05-18T11:42:21.096Z,94.00
2019-05-18T11:47:26.413Z,94.00
2019-05-18T11:52:31.478Z,95.50
2019-05-18T11:57:36.957Z,94.50
2019-05-18T12:02:42.237Z,94.10
2019-05-18T12:07:47.587Z,94.90
2019-05-18T12:12:52.673Z,93.30
2019-05-18T12:17:58.158Z,92.80
2019-05-18T12:23:07.943Z,94.00
2019-05-18T12:28:10.528Z,92.00
2019-05-18T12:33:15.821Z,92.30
2019-05-18T12:38:21.242Z,90.80
2019-05-18T12:43:26.825Z,90.80
2019-05-18T12:48:32.287Z,90.40
2019-05-18T12:53:37.646Z,90.00
2019-05-18T12:58:43.477Z,85.10
2019-05-18T13:03:49.290Z,82.20
2019-05-18T13:08:54.381Z,79.30
2019-05-18T13:13:59.583Z,83.60
2019-05-18T13:19:04.891Z,82.50
2019-05-18T13:24:10.358Z,79.60
2019-05-18T13:29:15.401Z,71.80
2019-05-18T13:34:20.771Z,65.80
2019-05-18T13:39:26.258Z,64.80
2019-05-18T13:44:31.970Z,62.30
2019-05-18T13:49:37.639Z,59.90
2019-05-18T13:54:43.033Z,67.90
2019-05-18T13:59:48.273Z,62.00
2019-05-18T14:04:53.431Z,61.20
2019-05-18T14:09:58.766Z,62.40
2019-05-18T14:15:05.910Z,63.40
2019-05-18T14:20:11.475Z,66.40
2019-05-18T14:25:19.864Z,68.10
2019-05-18T14:30:23.841Z,70.00
2019-05-18T14:35:28.882Z,71.40
2019-05-18T14:40:33.858Z,71.60
2019-05-18T14:45:39.110Z,72.90
2019-05-18T14:50:44.584Z,74.30
2019-05-18T14:55:49.586Z,74.00
2019-05-18T15:00:54.650Z,74.80
2019-05-18T15:05:59.629Z,73.30
2019-05-18T15:11:04.959Z,73.40
2019-05-18T15:16:10.149Z,72.30
2019-05-18T15:21:15.173Z,70.40
2019-05-18T15:26:20.478Z,71.60
2019-05-18T15:31:26.041Z,72.00
2019-05-18T15:36:31.478Z,70.00
2019-05-18T15:41:36.709Z,70.10
2019-05-18T15:46:41.952Z,71.20
2019-05-18T15:51:47.179Z,69.70
2019-05-18T15:56:52.060Z,68.40
2019-05-18T16:01:57.191Z,69.50
2019-05-18T16:07:02.706Z,72.10
2019-05-18T16:12:08.005Z,71.80
2019-05-18T16:17:13.385Z,69.70
2019-05-18T16:22:18.763Z,67.70
2019-05-18T16:27:24.420Z,68.70
2019-05-18T16:32:29.749Z,72.20
2019-05-18T16:37:35.101Z,73.80
2019-05-18T16:42:40.073Z,76.20
2019-05-18T16:47:45.480Z,78.60
2019-05-18T16:52:50.799Z,81.10
2019-05-18T16:57:56.219Z,82.30
2019-05-18T17:03:01.108Z,83.60
2019-05-18T17:08:06.603Z,85.10
2019-05-18T17:13:11.982Z,86.90
2019-05-18T17:18:17.201Z,87.70
2019-05-18T17:23:22.763Z,89.80
2019-05-18T17:28:27.947Z,90.80
2019-05-18T17:33:34.834Z,91.70
2019-05-18T17:38:40.109Z,92.00
2019-05-18T17:43:45.339Z,92.10
2019-05-18T17:48:51.029Z,91.70
2019-05-18T17:53:55.920Z,92.30
2019-05-18T17:59:01.358Z,92.70
2019-05-18T18:04:06.704Z,93.20
2019-05-18T18:09:11.697Z,93.70
2019-05-18T18:14:16.991Z,94.20
2019-05-18T18:19:22.316Z,94.90
2019-05-18T18:24:27.536Z,95.70
2019-05-18T18:29:32.667Z,96.10
2019-05-18T18:34:38.005Z,96.20
2019-05-18T18:39:43.094Z,96.30
2019-05-18T18:44:48.038Z,96.80
2019-05-18T18:49:53.187Z,97.30
2019-05-18T18:54:58.591Z,98.30
2019-05-18T19:00:04.662Z,99.20
2019-05-18T19:05:09.857Z,99.60
2019-05-18T19:10:16.916Z,99.90
2019-05-18T19:15:22.579Z,99.90
2019-05-18T19:20:28.895Z,99.90
2019-05-18T19:25:34.239Z,99.90
2019-05-18T19:30:39.661Z,99.90
2019-05-18T19:35:45.066Z,99.90
2019-05-18T19:40:50.435Z,99.90
2019-05-18T19:45:55.792Z,99.90
2019-05-18T19:51:01.143Z,99.90
2019-05-18T19:56:06.799Z,99.90
2019-05-18T20:01:12.141Z,99.90
2019-05-18T20:06:33.993Z,99.90
2019-05-18T20:11:39.542Z,99.90
2019-05-18T20:16:44.825Z,99.90
2019-05-18T20:21:50.091Z,99.90
2019-05-18T20:26:55.280Z,99.90
2019-05-18T20:32:00.509Z,99.90
2019-05-18T20:37:05.920Z,99.90
2019-05-18T20:42:10.969Z,99.90
2019-05-18T20:47:16.181Z,99.90
2019-05-18T20:52:21.461Z,99.90
2019-05-18T20:57:31.204Z,99.90
2019-05-18T21:02:36.444Z,99.90
2019-05-18T21:07:41.606Z,99.90
2019-05-18T21:12:47.031Z,99.90
2019-05-18T21:17:52.426Z,99.90
2019-05-18T21:22:57.525Z,99.90
2019-05-18T21:28:02.533Z,99.90
2019-05-18T21:33:07.878Z,99.90
2019-05-18T21:38:13.106Z,99.90
2019-05-18T21:43:18.392Z,99.90
2019-05-18T21:48:23.643Z,99.90
2019-05-18T21:53:28.642Z,99.90
2019-05-18T21:58:33.601Z,99.90
2019-05-18T22:03:38.633Z,99.90
2019-05-18T22:08:43.868Z,99.90
2019-05-18T22:13:49.178Z,99.90
2019-05-18T22:18:54.598Z,99.90
2019-05-18T22:23:59.976Z,99.90
2019-05-18T22:29:05.121Z,99.90
2019-05-18T22:34:10.311Z,99.90
2019-05-18T22:39:15.608Z,99.90
2019-05-18T22:44:20.878Z,99.90
2019-05-18T22:49:26.229Z,99.90
2019-05-18T22:54:31.297Z,99.90
2019-05-18T22:59:36.842Z,99.90
2019-05-18T23:04:41.942Z,99.90
2019-05-18T23:09:47.070Z,99.90
2019-05-18T23:14:52.016Z,99.90
2019-05-18T23:19:57.198Z,99.90
2019-05-18T23:25:02.358Z,99.90
2019-05-18T23:30:08.150Z,99.90
2019-05-18T23:35:13.496Z,99.90
2019-05-18T23:40:18.915Z,99.90
2019-05-18T23:45:24.090Z,99.90
2019-05-18T23:50:29.322Z,99.90
2019-05-18T23:55:35.437Z,99.90
